Time;durP1;ratioP1;P1;durP2;ratioP2;P2;SDS_P1;SDS_P2;PMS_P1;PMS_P2;Temp;Humidity;BMP_temperature;BMP_pressure;BME280_temperature;BME280_humidity;BME280_pressure;Samples;Min_cycle;Max_cycle;Signal;HPM_P1;HPM_P2
2022/06/12 00:01:59;;;;;;;3.83;2.85;;;19.80;99.90;;;;;;5084110;28;20463;-92
2022/06/12 00:04:25;;;;;;;3.92;3.22;;;19.90;99.90;;;;;;5078036;28;20025;-93
2022/06/12 00:06:52;;;;;;;4.80;3.20;;;19.90;99.90;;;;;;5085577;28;20020;-93
2022/06/12 00:09:19;;;;;;;5.07;3.08;;;20.00;99.90;;;;;;5083049;28;20055;-94
2022/06/12 00:11:44;;;;;;;3.20;2.90;;;20.10;99.90;;;;;;5084778;28;20020;-92
2022/06/12 00:14:14;;;;;;;4.45;2.90;;;20.20;99.90;;;;;;5085895;28;20054;-93
2022/06/12 00:16:41;;;;;;;4.65;2.75;;;20.30;99.90;;;;;;5081134;28;20043;-92
2022/06/12 00:19:07;;;;;;;5.80;3.17;;;20.30;99.90;;;;;;5078864;28;20017;-93
2022/06/12 00:21:33;;;;;;;7.32;3.13;;;20.20;99.90;;;;;;5084518;28;20043;-92
2022/06/12 00:24:05;;;;;;;2.88;2.67;;;20.20;99.90;;;;;;5075720;28;20023;-93
2022/06/12 00:26:37;;;;;;;3.78;3.10;;;20.20;99.90;;;;;;5081684;28;20051;-92
2022/06/12 00:29:10;;;;;;;4.13;3.08;;;20.00;99.90;;;;;;5068638;28;20037;-92
2022/06/12 00:31:38;;;;;;;3.10;2.80;;;19.90;99.90;;;;;;5080852;28;20021;-94
2022/06/12 00:34:05;;;;;;;5.57;3.00;;;19.80;99.90;;;;;;5087473;28;20028;-93
2022/06/12 00:36:31;;;;;;;4.68;3.30;;;19.60;99.90;;;;;;5082537;28;20029;-94
2022/06/12 00:38:57;;;;;;;3.25;2.78;;;19.60;99.90;;;;;;5066799;28;20016;-93
2022/06/12 00:41:23;;;;;;;3.70;2.92;;;19.50;99.90;;;;;;5085586;28;20489;-93
2022/06/12 00:43:49;;;;;;;5.95;3.20;;;19.50;99.90;;;;;;5089082;28;20012;-93
2022/06/12 00:46:39;;;;;;;5.00;3.25;;;19.40;99.90;;;;;;5078198;28;20107;-92
2022/06/12 00:49:36;;;;;;;3.70;3.30;;;19.40;99.90;;;;;;5071344;28;20024;-93
2022/06/12 00:52:43;;;;;;;4.65;3.20;;;19.50;99.90;;;;;;5054191;28;20490;-93
2022/06/12 00:55:33;;;;;;;5.55;3.20;;;19.40;99.90;;;;;;4985680;28;20022;-93
2022/06/12 00:58:04;;;;;;;4.65;3.03;;;19.50;99.90;;;;;;5001439;28;20034;-93
2022/06/12 01:00:31;;;;;;;5.22;3.08;;;19.50;99.90;;;;;;5035049;28;20024;-93
2022/06/12 01:02:59;;;;;;;4.22;3.10;;;19.60;99.90;;;;;;5072379;28;20029;-94
2022/06/12 01:08:11;;;;;;;3.95;3.00;;;19.60;99.90;;;;;;5078352;28;20032;-93
2022/06/12 01:10:40;;;;;;;4.00;3.33;;;19.60;99.90;;;;;;5079435;28;20025;-93
2022/06/12 01:13:23;;;;;;;3.13;2.90;;;19.70;99.90;;;;;;5089080;28;20071;-92
2022/06/12 01:15:52;;;;;;;6.70;3.00;;;19.70;99.90;;;;;;5063693;28;20036;-92
2022/06/12 01:18:21;;;;;;;3.60;2.90;;;19.60;99.90;;;;;;5073010;28;20012;-93
2022/06/12 01:21:20;;;;;;;3.83;3.05;;;19.60;99.90;;;;;;5089259;28;20051;-92
2022/06/12 01:24:10;;;;;;;5.43;2.88;;;19.60;99.90;;;;;;5080648;28;20016;-93
2022/06/12 01:26:57;;;;;;;3.38;3.10;;;19.60;99.90;;;;;;5075401;28;20020;-94
2022/06/12 01:29:40;;;;;;;3.20;2.90;;;19.70;99.90;;;;;;5082396;28;20024;-93
2022/06/12 01:32:20;;;;;;;3.80;3.08;;;19.80;99.90;;;;;;5083828;28;20439;-93
2022/06/12 01:34:59;;;;;;;4.82;3.05;;;19.80;99.90;;;;;;5076507;28;20051;-93
2022/06/12 01:37:29;;;;;;;3.00;2.80;;;19.80;99.90;;;;;;5050886;28;20083;-93
2022/06/12 01:40:07;;;;;;;3.85;2.92;;;19.70;99.90;;;;;;5081585;28;20024;-93
2022/06/12 01:42:45;;;;;;;4.07;2.85;;;19.60;99.90;;;;;;5081815;28;20385;-93
2022/06/12 01:45:31;;;;;;;3.67;2.80;;;19.50;99.90;;;;;;5086955;28;20027;-93
2022/06/12 01:48:16;;;;;;;4.05;2.70;;;19.40;99.90;;;;;;5089375;28;20271;-93
2022/06/12 01:50:44;;;;;;;2.97;2.78;;;19.30;99.90;;;;;;5069624;28;20051;-92
2022/06/12 01:53:34;;;;;;;3.97;3.30;;;19.20;99.90;;;;;;5078860;28;20071;-93
2022/06/12 01:56:18;;;;;;;9.20;3.30;;;19.10;99.90;;;;;;5081195;28;20561;-93
2022/06/12 01:59:12;;;;;;;3.63;3.33;;;19.10;99.90;;;;;;5088041;28;20616;-92
2022/06/12 02:02:09;;;;;;;6.28;3.30;;;19.10;99.90;;;;;;5086349;28;20117;-93
2022/06/12 02:04:53;;;;;;;4.25;3.15;;;19.00;99.90;;;;;;5076021;28;20020;-92
2022/06/12 02:07:25;;;;;;;5.90;3.15;;;18.90;99.90;;;;;;5083647;28;20027;-90
2022/06/12 02:09:59;;;;;;;7.28;3.42;;;18.90;99.90;;;;;;5089474;28;20050;-92
2022/06/12 02:15:37;;;;;;;7.15;3.45;;;18.90;99.90;;;;;;5080749;28;20039;-92
2022/06/12 02:18:22;;;;;;;5.47;3.50;;;18.90;99.90;;;;;;5078175;28;20027;-92
2022/06/12 02:20:54;;;;;;;3.70;3.05;;;18.80;99.90;;;;;;5072811;28;20082;-93
2022/06/12 02:23:29;;;;;;;3.72;3.05;;;18.90;99.90;;;;;;5083912;28;20088;-92
2022/06/12 02:25:57;;;;;;;4.85;3.50;;;19.00;99.90;;;;;;5088088;28;20031;-91
2022/06/12 02:28:30;;;;;;;4.38;3.50;;;19.10;99.90;;;;;;5089974;28;20055;-92
2022/06/12 02:31:01;;;;;;;4.32;3.17;;;19.00;99.90;;;;;;5080269;28;20067;-91
2022/06/12 02:33:34;;;;;;;5.50;2.88;;;19.10;99.90;;;;;;5092635;28;20070;-92
2022/06/12 02:36:24;;;;;;;9.30;2.85;;;19.10;99.90;;;;;;5088855;28;20066;-94
2022/06/12 02:39:04;;;;;;;3.38;3.00;;;19.00;99.90;;;;;;5091774;28;20502;-92
2022/06/12 02:41:44;;;;;;;4.10;3.60;;;19.00;99.90;;;;;;5084459;28;20274;-92
2022/06/12 02:44:15;;;;;;;7.43;3.25;;;18.90;99.90;;;;;;5065327;28;20036;-93
2022/06/12 02:46:48;;;;;;;4.38;3.00;;;18.90;99.90;;;;;;5086203;28;20024;-92
2022/06/12 02:49:15;;;;;;;4.22;3.33;;;18.90;99.90;;;;;;5090587;28;20044;-90
2022/06/12 02:51:56;;;;;;;4.35;3.05;;;18.90;99.90;;;;;;5079078;28;20021;-92
2022/06/12 02:54:28;;;;;;;4.97;3.03;;;18.80;99.90;;;;;;5082402;28;20024;-90
2022/06/12 02:57:13;;;;;;;3.63;3.00;;;18.90;99.90;;;;;;5087833;28;20032;-89
2022/06/12 03:00:18;;;;;;;3.60;3.30;;;18.80;99.90;;;;;;5089750;28;20114;-91
2022/06/12 03:03:02;;;;;;;3.13;2.67;;;18.80;99.90;;;;;;5010539;28;20553;-91
2022/06/12 03:05:33;;;;;;;3.50;2.97;;;18.80;99.90;;;;;;5003901;28;20034;-92
2022/06/12 03:08:06;;;;;;;3.57;2.63;;;18.70;99.90;;;;;;5026513;28;20106;-91
2022/06/12 03:10:38;;;;;;;4.40;2.90;;;18.80;99.90;;;;;;5080598;28;20783;-91
2022/06/12 03:13:07;;;;;;;4.33;2.63;;;18.90;99.90;;;;;;5056955;28;20504;-91
2022/06/12 03:15:47;;;;;;;5.82;3.17;;;19.00;99.90;;;;;;5084563;28;20032;-92
2022/06/12 03:18:26;;;;;;;3.35;3.05;;;19.10;99.90;;;;;;5090515;28;20051;-92
2022/06/12 03:21:05;;;;;;;4.07;2.92;;;19.10;99.90;;;;;;5068573;28;20024;-90
2022/06/12 03:24:00;;;;;;;6.25;3.38;;;19.10;99.90;;;;;;5079146;28;20167;-92
2022/06/12 03:26:40;;;;;;;4.03;2.92;;;19.20;99.90;;;;;;5080769;28;20447;-90
2022/06/12 03:29:34;;;;;;;5.25;3.30;;;19.10;99.90;;;;;;5069679;28;20104;-92
2022/06/12 03:32:18;;;;;;;4.05;3.17;;;19.10;99.90;;;;;;5083214;28;20471;-92
2022/06/12 03:34:58;;;;;;;3.35;3.05;;;19.10;99.90;;;;;;5077520;28;20025;-92
2022/06/12 03:37:36;;;;;;;5.28;3.20;;;19.00;99.90;;;;;;5076839;28;20044;-90
2022/06/12 03:40:20;;;;;;;5.22;3.22;;;19.10;99.90;;;;;;5076182;28;20025;-90
2022/06/12 03:42:53;;;;;;;3.05;2.75;;;19.20;99.90;;;;;;5090685;28;20170;-93
2022/06/12 03:45:34;;;;;;;4.28;3.13;;;19.30;99.90;;;;;;5078178;28;20024;-91
2022/06/12 03:48:22;;;;;;;3.25;2.90;;;19.30;99.90;;;;;;5076351;28;20405;-91
2022/06/12 03:51:06;;;;;;;7.75;3.22;;;19.20;99.90;;;;;;5079315;28;20062;-90
2022/06/12 03:53:51;;;;;;;4.53;2.58;;;19.20;99.90;;;;;;5077259;28;20028;-87
2022/06/12 03:59:48;;;;;;;4.22;3.17;;;19.30;99.90;;;;;;5071500;28;20032;-91
2022/06/12 04:02:18;;;;;;;7.78;2.80;;;19.30;99.90;;;;;;5064062;28;20039;-89
2022/06/12 04:04:46;;;;;;;3.67;2.63;;;19.30;99.90;;;;;;5074555;28;20103;-90
2022/06/12 04:07:16;;;;;;;4.75;3.00;;;19.40;99.90;;;;;;5085477;28;20036;-89
2022/06/12 04:09:45;;;;;;;9.15;3.00;;;19.60;99.90;;;;;;5077923;28;20056;-89
2022/06/12 04:12:21;;;;;;;3.58;2.70;;;19.60;99.90;;;;;;5082747;28;20072;-89
2022/06/12 04:15:05;;;;;;;5.28;2.70;;;19.60;99.90;;;;;;5083910;28;20345;-90
2022/06/12 04:17:30;;;;;;;6.55;2.72;;;19.70;99.90;;;;;;5077356;28;20051;-90
2022/06/12 04:19:59;;;;;;;3.88;2.60;;;19.90;99.90;;;;;;5082823;28;20505;-89
2022/06/12 04:23:02;;;;;;;3.05;2.78;;;20.00;99.90;;;;;;5081023;28;20501;-89
2022/06/12 04:25:53;;;;;;;4.57;2.70;;;20.10;99.90;;;;;;5032226;28;20045;-90
2022/06/12 04:28:31;;;;;;;2.70;2.50;;;20.10;99.90;;;;;;5084321;28;20016;-90
2022/06/12 04:30:58;;;;;;;3.03;2.33;;;20.10;99.90;;;;;;5081783;28;20020;-90
2022/06/12 04:33:53;;;;;;;3.33;2.60;;;20.10;99.90;;;;;;5078927;28;20020;-91
2022/06/12 04:36:19;;;;;;;5.30;3.03;;;20.20;99.90;;;;;;5080048;28;20036;-90
2022/06/12 04:38:45;;;;;;;3.03;2.70;;;20.30;99.90;;;;;;5078243;28;20069;-89
2022/06/12 04:41:24;;;;;;;3.50;2.65;;;20.40;99.90;;;;;;5076026;28;20027;-89
2022/06/12 04:43:50;;;;;;;4.22;2.35;;;20.50;99.90;;;;;;5087282;28;20463;-88
2022/06/12 04:46:17;;;;;;;2.60;2.30;;;20.60;99.90;;;;;;5081146;28;20038;-88
2022/06/12 04:48:45;;;;;;;3.05;2.75;;;20.70;99.90;;;;;;5076149;28;20016;-89
2022/06/12 04:51:11;;;;;;;2.85;2.20;;;20.80;99.90;;;;;;5084364;28;20434;-88
2022/06/12 04:53:39;;;;;;;4.22;2.38;;;20.90;99.90;;;;;;5085479;28;20024;-89
2022/06/12 04:56:05;;;;;;;5.53;2.40;;;21.10;99.90;;;;;;5084552;28;20119;-88
2022/06/12 04:58:31;;;;;;;3.90;2.40;;;21.20;99.90;;;;;;5076732;28;20021;-89
2022/06/12 05:00:58;;;;;;;7.50;2.53;;;21.30;99.90;;;;;;5082063;28;20024;-89
2022/06/12 05:03:23;;;;;;;4.55;2.30;;;21.40;99.90;;;;;;5078185;28;20024;-89
2022/06/12 05:05:50;;;;;;;2.13;1.92;;;21.60;99.90;;;;;;5081821;28;20433;-90
2022/06/12 05:08:17;;;;;;;4.13;2.35;;;21.70;99.90;;;;;;5083927;28;20025;-89
2022/06/12 05:10:43;;;;;;;3.40;2.00;;;21.80;99.90;;;;;;5071624;28;20049;-87
2022/06/12 05:13:08;;;;;;;5.53;2.60;;;21.90;99.90;;;;;;5072432;28;20076;-88
2022/06/12 05:15:35;;;;;;;4.18;2.53;;;22.00;99.90;;;;;;5080698;28;20032;-89
2022/06/12 05:18:01;;;;;;;3.60;2.13;;;22.10;99.90;;;;;;5089710;28;20028;-89
2022/06/12 05:20:29;;;;;;;3.70;2.08;;;22.30;99.90;;;;;;5084367;28;20020;-89
2022/06/12 05:22:55;;;;;;;5.88;2.15;;;22.30;99.90;;;;;;5064540;28;20081;-87
2022/06/12 05:25:23;;;;;;;4.53;2.15;;;22.30;99.90;;;;;;5079554;28;20074;-88
2022/06/12 05:27:50;;;;;;;2.58;2.20;;;22.30;99.90;;;;;;5079987;28;20490;-88
2022/06/12 05:30:21;;;;;;;2.83;2.25;;;22.30;99.90;;;;;;5082226;28;20017;-89
2022/06/12 05:32:48;;;;;;;4.93;2.08;;;22.20;99.90;;;;;;5082921;28;20024;-89
2022/06/12 05:35:14;;;;;;;3.22;2.20;;;22.20;99.90;;;;;;5084183;28;20373;-89
2022/06/12 05:37:40;;;;;;;2.97;2.35;;;22.30;99.90;;;;;;5075292;28;20025;-90
2022/06/12 05:40:10;;;;;;;2.80;2.20;;;22.30;99.90;;;;;;5081312;28;20023;-87
2022/06/12 05:42:39;;;;;;;6.53;2.20;;;22.30;99.90;;;;;;5072324;28;20251;-86
2022/06/12 05:45:08;;;;;;;2.58;2.28;;;22.30;99.90;;;;;;5083260;28;20031;-86
2022/06/12 05:47:34;;;;;;;2.53;2.03;;;22.30;99.90;;;;;;5085781;28;20051;-88
2022/06/12 05:50:00;;;;;;;2.58;2.03;;;22.50;99.90;;;;;;5080024;28;20033;-88
2022/06/12 05:52:26;;;;;;;3.08;2.38;;;22.50;99.90;;;;;;5061860;28;20028;-89
2022/06/12 05:54:52;;;;;;;2.78;1.92;;;22.60;99.90;;;;;;5081517;28;20047;-88
2022/06/12 05:57:18;;;;;;;2.70;2.22;;;22.60;99.90;;;;;;5083262;28;20028;-84
2022/06/12 05:59:43;;;;;;;3.50;2.20;;;22.70;99.90;;;;;;5082254;28;20025;-88
2022/06/12 06:02:10;;;;;;;5.05;2.45;;;22.80;99.90;;;;;;5088536;28;20135;-87
2022/06/12 06:04:36;;;;;;;7.20;2.85;;;22.90;99.90;;;;;;5086713;28;20073;-86
2022/06/12 06:07:02;;;;;;;2.10;1.90;;;22.90;99.90;;;;;;5083352;28;20032;-86
2022/06/12 06:09:29;;;;;;;2.70;2.00;;;23.00;99.90;;;;;;5084129;28;20027;-86
2022/06/12 06:11:55;;;;;;;6.72;2.38;;;23.20;99.90;;;;;;5081329;28;20035;-93
2022/06/12 06:14:21;;;;;;;1.50;1.40;;;23.30;99.90;;;;;;5093497;28;20464;-93
2022/06/12 06:16:47;;;;;;;2.45;1.98;;;23.40;99.90;;;;;;5091614;28;20039;-92
2022/06/12 06:19:14;;;;;;;3.15;1.80;;;23.60;99.90;;;;;;5084476;28;20028;-92
2022/06/12 06:21:40;;;;;;;2.35;1.90;;;23.70;99.90;;;;;;5091555;28;20023;-92
2022/06/12 06:24:08;;;;;;;5.15;1.58;;;23.90;99.90;;;;;;5076604;28;20108;-93
2022/06/12 06:26:33;;;;;;;2.83;1.80;;;24.00;99.90;;;;;;5077095;28;20032;-93
2022/06/12 06:28:59;;;;;;;3.55;1.70;;;24.10;99.90;;;;;;5083129;28;20360;-92
2022/06/12 06:31:26;;;;;;;2.70;1.92;;;24.20;99.90;;;;;;5091335;28;20474;-93
2022/06/12 06:33:54;;;;;;;3.53;2.42;;;24.30;99.90;;;;;;5090260;28;20119;-93
2022/06/12 06:36:21;;;;;;;2.90;1.65;;;24.40;99.10;;;;;;5084539;28;20032;-93
2022/06/12 06:38:50;;;;;;;5.47;2.03;;;24.50;99.90;;;;;;5079429;28;20012;-91
2022/06/12 06:41:16;;;;;;;5.90;2.30;;;24.50;98.00;;;;;;5076277;28;20048;-91
2022/06/12 06:46:26;;;;;;;2.88;2.00;;;24.20;97.60;;;;;;5085952;28;20496;-93
2022/06/12 06:48:52;;;;;;;6.10;2.20;;;24.10;97.00;;;;;;5090962;28;20433;-90
2022/06/12 06:51:19;;;;;;;3.63;2.28;;;24.20;98.10;;;;;;5092286;28;20024;-92
2022/06/12 06:53:45;;;;;;;6.80;2.55;;;24.20;97.50;;;;;;5088740;28;20009;-92
2022/06/12 06:56:11;;;;;;;5.63;2.60;;;24.30;99.00;;;;;;5082712;28;20043;-92
2022/06/12 06:58:36;;;;;;;6.22;2.80;;;24.30;99.90;;;;;;5088427;28;20524;-88
2022/06/12 07:01:04;;;;;;;4.22;2.20;;;24.20;99.90;;;;;;5077732;28;20024;-90
2022/06/12 07:03:30;;;;;;;6.38;2.95;;;24.00;99.90;;;;;;5077212;28;20104;-94
2022/06/12 07:05:57;;;;;;;6.45;2.40;;;24.00;99.90;;;;;;5088099;28;20421;-89
2022/06/12 07:08:27;;;;;;;7.88;2.92;;;24.00;99.90;;;;;;5076645;28;20066;-91
2022/06/12 07:10:54;;;;;;;5.35;2.92;;;24.00;99.90;;;;;;5079592;28;20036;-91
2022/06/12 07:13:21;;;;;;;5.05;3.08;;;24.00;99.90;;;;;;5060773;28;20039;-89
2022/06/12 07:15:47;;;;;;;4.95;2.75;;;23.50;99.90;;;;;;5076298;28;20033;-89
2022/06/12 07:18:13;;;;;;;5.13;3.03;;;23.40;99.90;;;;;;5082159;28;20029;-91
2022/06/12 07:20:45;;;;;;;4.90;2.53;;;23.60;99.90;;;;;;5085326;28;20032;-89
2022/06/12 07:23:11;;;;;;;5.00;3.17;;;23.50;99.90;;;;;;5084556;28;20023;-90
2022/06/12 07:25:41;;;;;;;7.63;3.65;;;23.40;99.90;;;;;;5086000;28;20024;-92
2022/06/12 07:28:07;;;;;;;4.10;3.00;;;23.40;99.90;;;;;;5084933;28;20495;-92
2022/06/12 07:30:33;;;;;;;4.15;3.17;;;23.50;99.90;;;;;;5084736;28;20035;-91
2022/06/12 07:32:59;;;;;;;2.88;1.85;;;23.70;99.90;;;;;;5082084;28;20487;-92
2022/06/12 07:35:25;;;;;;;4.22;2.30;;;23.90;99.90;;;;;;5080537;28;20020;-92
2022/06/12 07:37:51;;;;;;;4.20;2.65;;;24.00;99.90;;;;;;5073004;28;20032;-93
2022/06/12 07:40:25;;;;;;;3.63;2.60;;;24.10;99.90;;;;;;5088295;28;20050;-93
2022/06/12 07:42:51;;;;;;;5.70;2.90;;;24.20;99.90;;;;;;5065600;28;20418;-92
2022/06/12 07:45:17;;;;;;;4.80;2.80;;;24.10;99.90;;;;;;5079021;28;20040;-91
2022/06/12 07:47:44;;;;;;;4.97;2.83;;;24.00;99.90;;;;;;5081347;28;20024;-90
2022/06/12 07:50:10;;;;;;;3.65;2.70;;;24.00;99.90;;;;;;5082217;28;20371;-91
2022/06/12 07:52:38;;;;;;;2.80;2.47;;;24.00;99.90;;;;;;5074676;28;20380;-93
2022/06/12 07:55:06;;;;;;;2.75;2.13;;;24.00;99.90;;;;;;5081172;28;20031;-93
2022/06/12 07:57:32;;;;;;;2.75;2.13;;;24.10;99.90;;;;;;5082610;28;20044;-91
2022/06/12 07:59:58;;;;;;;2.88;2.60;;;24.10;99.90;;;;;;5081433;28;20621;-91
2022/06/12 08:02:24;;;;;;;6.07;2.33;;;24.40;99.90;;;;;;5072672;28;20035;-89
2022/06/12 08:04:49;;;;;;;5.10;2.42;;;24.30;99.90;;;;;;5077659;28;20028;-92
2022/06/12 08:07:15;;;;;;;6.68;2.60;;;24.20;99.90;;;;;;5080393;28;20559;-91
2022/06/12 08:09:41;;;;;;;2.55;2.35;;;24.20;99.90;;;;;;5080984;28;20386;-88
2022/06/12 08:12:07;;;;;;;4.97;2.60;;;24.20;99.90;;;;;;5088755;28;20477;-89
2022/06/12 08:14:33;;;;;;;4.90;2.45;;;24.20;99.90;;;;;;5081639;28;20028;-91
2022/06/12 08:16:59;;;;;;;2.88;2.30;;;24.10;99.90;;;;;;5086814;28;20029;-92
2022/06/12 08:22:09;;;;;;;8.02;2.72;;;24.30;99.90;;;;;;5079931;28;20073;-90
2022/06/12 08:24:37;;;;;;;2.72;2.25;;;24.40;99.90;;;;;;5076246;28;20024;-89
2022/06/12 08:27:02;;;;;;;3.03;2.25;;;24.40;99.90;;;;;;5084025;28;20084;-91
2022/06/12 08:29:28;;;;;;;4.10;2.30;;;24.30;99.90;;;;;;5082955;28;20107;-90
2022/06/12 08:32:01;;;;;;;2.80;2.20;;;24.40;99.90;;;;;;5085578;28;20608;-91
2022/06/12 08:34:29;;;;;;;3.25;2.55;;;24.50;97.40;;;;;;5082883;28;20510;-88
2022/06/12 08:36:58;;;;;;;4.43;2.40;;;24.40;99.90;;;;;;5081394;28;20028;-87
2022/06/12 08:39:24;;;;;;;3.10;2.75;;;24.30;99.90;;;;;;5081953;28;20043;-89
2022/06/12 08:42:24;;;;;;;4.72;3.47;;;24.20;99.90;;;;;;5083464;28;20031;-91
2022/06/12 08:45:19;;;;;;;5.28;2.97;;;24.20;99.90;;;;;;5080197;28;20020;-88
2022/06/12 08:47:54;;;;;;;3.50;3.20;;;24.30;99.90;;;;;;5090723;28;20081;-90
2022/06/12 08:50:48;;;;;;;6.97;3.42;;;24.50;99.90;;;;;;5077886;28;20059;-89
2022/06/12 08:53:23;;;;;;;4.90;3.30;;;24.50;99.90;;;;;;5075128;28;20016;-92
2022/06/12 08:55:55;;;;;;;5.93;3.20;;;24.50;99.90;;;;;;5080086;28;20029;-90
2022/06/12 08:58:30;;;;;;;4.05;3.22;;;24.50;99.90;;;;;;5084585;28;20024;-90
2022/06/12 09:00:58;;;;;;;4.10;2.90;;;24.50;99.90;;;;;;5080452;28;20523;-88
2022/06/12 09:03:29;;;;;;;10.75;2.70;;;24.40;99.90;;;;;;5077644;28;20368;-89
2022/06/12 09:06:06;;;;;;;3.28;2.63;;;24.40;99.90;;;;;;5078910;28;20482;-91
2022/06/12 09:08:49;;;;;;;4.13;3.08;;;24.50;99.90;;;;;;5079809;28;20029;-91
2022/06/12 09:11:18;;;;;;;4.65;3.00;;;24.60;99.90;;;;;;5072963;28;20021;-91
2022/06/12 09:13:56;;;;;;;3.50;3.00;;;24.70;99.90;;;;;;5068138;28;20044;-91
2022/06/12 09:16:36;;;;;;;3.58;2.80;;;24.70;99.90;;;;;;5079513;28;20168;-87
2022/06/12 09:19:32;;;;;;;4.32;3.60;;;24.80;99.90;;;;;;5069085;28;20505;-89
2022/06/12 09:22:25;;;;;;;5.05;3.10;;;24.90;99.90;;;;;;5050834;28;20449;-88
2022/06/12 09:24:58;;;;;;;7.78;3.35;;;25.00;99.90;;;;;;5081649;28;20013;-91
2022/06/12 09:27:35;;;;;;;5.43;2.65;;;24.90;99.90;;;;;;5087157;28;20471;-91
2022/06/12 09:30:16;;;;;;;4.00;3.13;;;25.10;99.90;;;;;;5083396;28;20028;-90
2022/06/12 09:32:55;;;;;;;4.50;2.60;;;25.10;99.90;;;;;;5083721;28;20024;-88
2022/06/12 09:35:36;;;;;;;7.05;2.38;;;25.10;99.90;;;;;;5082972;28;20016;-91
2022/06/12 09:38:23;;;;;;;3.13;2.70;;;25.30;99.90;;;;;;5076399;28;20028;-91
2022/06/12 09:40:52;;;;;;;5.03;2.30;;;25.50;99.90;;;;;;5083645;28;20031;-88
2022/06/12 09:43:27;;;;;;;3.83;2.50;;;25.70;99.30;;;;;;5071319;28;20487;-90
2022/06/12 09:46:04;;;;;;;4.50;2.25;;;25.70;99.00;;;;;;5090283;28;20020;-92
2022/06/12 09:48:51;;;;;;;6.22;2.53;;;25.80;99.90;;;;;;5087564;28;20107;-90
2022/06/12 09:51:54;;;;;;;10.48;2.90;;;25.80;99.80;;;;;;5086188;28;20028;-90
2022/06/12 09:54:36;;;;;;;10.40;3.08;;;25.90;99.50;;;;;;5079758;28;20024;-91
2022/06/12 09:57:19;;;;;;;3.33;2.55;;;25.70;99.80;;;;;;5080481;28;20033;-87
2022/06/12 09:59:50;;;;;;;2.65;2.42;;;25.50;99.90;;;;;;5080031;28;20029;-91
2022/06/12 10:02:40;;;;;;;2.88;2.53;;;25.60;99.90;;;;;;5083907;28;20028;-88
2022/06/12 10:05:35;;;;;;;9.88;2.60;;;25.60;99.90;;;;;;5088620;28;20016;-89
2022/06/12 10:08:12;;;;;;;2.65;2.17;;;25.70;98.90;;;;;;5046621;28;20482;-90
2022/06/12 10:10:56;;;;;;;4.95;2.17;;;25.70;97.50;;;;;;5077448;28;20028;-91
2022/06/12 10:13:34;;;;;;;2.10;1.90;;;25.80;96.50;;;;;;5082333;28;20069;-90
2022/06/12 10:16:05;;;;;;;1.95;1.75;;;25.90;97.60;;;;;;5083657;28;20028;-89
2022/06/12 10:19:03;;;;;;;10.57;2.47;;;26.00;95.00;;;;;;5080264;28;20463;-87
2022/06/12 10:21:35;;;;;;;5.05;2.50;;;26.10;97.30;;;;;;5078551;28;20048;-92
2022/06/12 10:24:01;;;;;;;5.13;2.92;;;26.10;99.90;;;;;;5071944;28;20498;-90
2022/06/12 10:26:30;;;;;;;4.95;2.50;;;26.00;99.70;;;;;;5083542;28;20025;-89
2022/06/12 10:29:15;;;;;;;3.13;2.40;;;26.00;99.90;;;;;;5086052;28;20016;-88
2022/06/12 10:31:59;;;;;;;6.28;2.75;;;26.00;99.90;;;;;;5084357;28;20023;-91
2022/06/12 10:34:28;;;;;;;3.08;2.20;;;26.10;99.40;;;;;;5079479;28;20039;-90
2022/06/12 10:37:15;;;;;;;2.35;2.15;;;26.30;96.80;;;;;;5062705;28;20407;-91
2022/06/12 10:39:41;;;;;;;6.97;2.28;;;26.40;98.70;;;;;;5080695;28;20043;-87
2022/06/12 10:42:26;;;;;;;2.58;2.20;;;26.50;97.50;;;;;;5079821;28;20031;-89
2022/06/12 10:44:58;;;;;;;3.50;2.85;;;26.40;97.90;;;;;;5086373;28;20050;-91
2022/06/12 10:47:27;;;;;;;3.85;2.58;;;26.50;98.30;;;;;;5078220;28;20017;-90
2022/06/12 10:50:22;;;;;;;4.10;1.95;;;26.60;98.20;;;;;;5081971;28;20028;-89
2022/06/12 10:53:09;;;;;;;2.45;2.25;;;26.70;98.00;;;;;;5081390;28;20103;-89
2022/06/12 10:55:53;;;;;;;3.13;2.50;;;26.80;98.30;;;;;;5084385;28;20029;-89
2022/06/12 10:58:26;;;;;;;2.65;2.45;;;26.70;97.90;;;;;;5082198;28;20027;-89
2022/06/12 11:00:54;;;;;;;3.83;2.75;;;26.80;96.60;;;;;;5083153;28;20028;-90
2022/06/12 11:03:20;;;;;;;4.50;2.70;;;26.60;97.40;;;;;;5086570;28;20020;-92
2022/06/12 11:05:54;;;;;;;2.85;2.55;;;26.80;97.60;;;;;;5088155;28;20416;-92
2022/06/12 11:08:52;;;;;;;5.05;3.08;;;27.00;97.40;;;;;;5085369;28;20096;-89
2022/06/12 11:11:58;;;;;;;2.97;2.70;;;26.90;97.00;;;;;;5080374;28;20020;-89
2022/06/12 11:14:38;;;;;;;4.80;2.50;;;27.00;98.40;;;;;;5048461;28;20128;-92
2022/06/12 11:17:41;;;;;;;4.32;2.60;;;26.90;98.40;;;;;;5042480;28;20091;-89
2022/06/12 11:20:31;;;;;;;4.50;3.05;;;26.70;99.90;;;;;;5047820;28;20017;-89
2022/06/12 11:23:24;;;;;;;9.30;3.90;;;26.40;99.90;;;;;;5051333;28;20029;-90
2022/06/12 11:26:04;;;;;;;12.05;3.65;;;26.40;99.90;;;;;;5038565;28;20021;-91
2022/06/12 11:29:01;;;;;;;4.78;3.15;;;26.30;99.90;;;;;;5046235;28;20128;-89
2022/06/12 11:31:41;;;;;;;3.90;3.45;;;26.10;99.90;;;;;;5035029;28;20024;-92
2022/06/12 11:34:29;;;;;;;8.43;3.55;;;26.10;99.90;;;;;;5027858;28;20476;-88
2022/06/12 11:37:10;;;;;;;5.97;3.10;;;26.20;99.90;;;;;;5042813;28;20045;-91
2022/06/12 11:39:43;;;;;;;18.80;3.60;;;26.40;99.90;;;;;;5035462;28;20033;-90
2022/06/12 11:42:36;;;;;;;6.32;3.03;;;26.50;99.90;;;;;;5047066;28;20276;-91
2022/06/12 11:45:04;;;;;;;;;;;26.60;99.90;;;;;;5041219;28;20036;-90
2022/06/12 11:47:39;;;;;;;;;;;26.50;99.90;;;;;;5043975;28;20416;-90
2022/06/12 11:50:04;;;;;;;;;;;26.40;99.90;;;;;;5037145;28;20383;-88
2022/06/12 11:52:33;;;;;;;;;;;26.40;99.90;;;;;;5042090;28;19913;-90
2022/06/12 11:55:21;;;;;;;;;;;26.20;99.90;;;;;;5038725;28;19975;-91
2022/06/12 11:57:53;;;;;;;;;;;26.40;99.90;;;;;;5042005;28;19999;-91
2022/06/12 12:00:22;;;;;;;;;;;26.80;99.90;;;;;;5027255;28;19950;-90
2022/06/12 12:03:00;;;;;;;;;;;27.70;99.90;;;;;;5043488;28;19943;-92
2022/06/12 12:05:29;;;;;;;;;;;30.80;99.90;;;;;;5033179;28;20000;-90
2022/06/12 12:08:02;;;;;;;;;;;33.10;95.70;;;;;;5034266;28;19915;-93
2022/06/12 12:10:36;;;;;;;;;;;34.10;96.60;;;;;;5037014;28;19913;-90
2022/06/12 12:13:05;;;;;;;;;;;34.20;92.90;;;;;;5056735;28;19957;-90
2022/06/12 12:15:44;;;;;;;;;;;34.70;92.80;;;;;;5080734;28;19935;-90
2022/06/12 12:18:15;;;;;;;;;;;34.10;92.30;;;;;;5084304;28;20270;-89
2022/06/12 12:20:41;;;;;;;;;;;34.20;92.90;;;;;;5084305;28;19904;-90
2022/06/12 12:23:08;;;;;;;;;;;34.10;93.10;;;;;;5083729;28;20561;-88
2022/06/12 12:25:34;;;;;;;;;;;34.50;91.90;;;;;;5086726;28;19912;-92
2022/06/12 12:28:01;;;;;;;;;;;34.10;93.20;;;;;;5083168;28;19947;-89
2022/06/12 12:30:29;;;;;;;;;;;34.30;93.20;;;;;;5076255;28;19904;-89
2022/06/12 12:32:57;;;;;;;;;;;34.40;91.70;;;;;;5074837;28;19904;-91
2022/06/12 12:41:13;;;;;;;;;;;34.90;90.10;;;;;;5079699;28;19911;-92
2022/06/12 12:43:48;;;;;;;;;;;35.60;89.80;;;;;;5085805;28;19964;-86
2022/06/12 12:46:13;;;;;;;;;;;37.00;84.30;;;;;;5083558;28;19975;-91
2022/06/12 12:48:49;;;;;;;;;;;36.90;81.10;;;;;;5084938;28;20535;-89
2022/06/12 12:51:24;;;;;;;;;;;36.70;84.70;;;;;;5072855;28;20012;-89
2022/06/12 12:53:52;;;;;;;;;;;36.40;82.10;;;;;;5083572;28;19904;-89
2022/06/12 12:56:27;;;;;;;;;;;37.00;82.70;;;;;;5081468;28;19940;-88
2022/06/12 12:58:58;;;;;;;;;;;37.20;82.20;;;;;;5083876;28;19910;-89
2022/06/12 13:01:25;;;;;;;;;;;37.20;83.30;;;;;;5077609;28;19910;-87
2022/06/12 13:04:09;;;;;;;;;;;36.90;82.10;;;;;;5083578;28;19905;-90
2022/06/12 13:06:50;;;;;;;;;;;36.50;81.80;;;;;;5087119;28;19904;-87
2022/06/12 13:09:32;;;;;;;;;;;35.80;84.30;;;;;;5081827;28;20419;-90
2022/06/12 13:12:21;;;;;;;;;;;37.10;85.10;;;;;;5083522;28;19911;-92
2022/06/12 13:14:49;;;;;;;;;;;38.50;82.50;;;;;;5063052;28;19923;-89
2022/06/12 13:17:17;;;;;;;;;;;38.40;78.50;;;;;;5082715;28;19923;-92
2022/06/12 13:20:02;;;;;;;;;;;38.70;77.00;;;;;;5077464;28;19920;-87
2022/06/12 13:22:27;;;;;;;;;;;38.70;73.50;;;;;;5057918;28;19904;-91
2022/06/12 13:25:04;;;;;;;;;;;38.10;74.90;;;;;;5073782;28;20343;-89
2022/06/12 13:27:32;;;;;;;;;;;37.50;76.20;;;;;;5076175;28;19942;-91
2022/06/12 13:29:58;;;;;;;;;;;37.70;79.70;;;;;;5075015;28;20071;-92
2022/06/12 13:32:31;;;;;;;;;;;39.30;75.70;;;;;;5084380;28;19908;-89
2022/06/12 13:35:00;;;;;;;;;;;38.80;74.10;;;;;;5083548;28;20360;-87
2022/06/12 13:37:28;;;;;;;;;;;38.20;78.20;;;;;;5083831;28;19916;-91
2022/06/12 13:39:54;;;;;;;;;;;38.40;77.40;;;;;;5080566;28;19915;-90
2022/06/12 13:42:21;;;;;;;;;;;37.50;80.50;;;;;;5089193;28;20006;-90
2022/06/12 13:44:49;;;;;;;;;;;37.50;76.10;;;;;;5087908;28;19911;-90
2022/06/12 13:47:14;;;;;;;;;;;36.60;79.50;;;;;;5078415;28;19904;-93
2022/06/12 13:49:44;;;;;;;;;;;36.80;80.20;;;;;;5076367;28;19927;-92
2022/06/12 13:52:10;;;;;;;;;;;36.70;78.90;;;;;;5079469;28;19912;-94
2022/06/12 13:54:41;;;;;;;;;;;36.30;83.80;;;;;;5086172;28;20366;-89
2022/06/12 13:57:20;;;;;;;;;;;36.10;84.00;;;;;;5083418;28;19918;-90